Terminal Aerodrome Forecast
Issued by NWS

Home | Current Version | Previous Version | Text Only | Print | Product List | Glossary On
Versions: 1 2 3 4 5 6 7 8 9 10 11 12 13 14 15 16 17 18 19 20 21 22 23 24 25 26 27 28 29 30 31 32 33 34 35 36 37 38 39 40 41 42 43 44 45 46 47 48 49 50
376
FTUS43 KMKX 231846 AAB
TAFENW
TAF AMD
KENW 231846Z 2319/2418 29005KT 6SM BR BKN010 BKN014 OVC022
     FM232000 34005KT P6SM OVC015
     FM240200 33004KT 5SM BR BKN008
     FM240400 32004KT 4SM BR BKN010
     FM240500 32004KT 4SM BR BKN008
     FM241500 VRB03KT 5SM BR BKN010
     FM241600 VRB03KT P6SM BKN015
     FM241700 VRB03KT P6SM BKN020=

USA.gov is the U.S. government's official web portal to all federal, state and local government web resources and services.